Time;durP1;ratioP1;P1;durP2;ratioP2;P2;SDS_P1;SDS_P2;PMS_P1;PMS_P2;Temp;Humidity;BMP_temperature;BMP_pressure;BME280_temperature;BME280_humidity;BME280_pressure;Samples;Min_cycle;Max_cycle;Signal;HPM_P1;HPM_P2
2023/03/11 00:02:10;;;;;;;0.60;0.60;;;;;;;3.39;nan;97004.13;5073442;28;20285;-76
2023/03/11 00:04:37;;;;;;;0.70;0.70;;;;;;;3.33;nan;96997.06;5073959;28;20197;-75
2023/03/11 00:07:08;;;;;;;0.57;0.57;;;;;;;3.34;nan;97005.78;5073740;28;20210;-75
2023/03/11 00:09:35;;;;;;;0.60;0.60;;;;;;;3.28;nan;97023.13;5073094;28;20215;-75
2023/03/11 00:12:03;;;;;;;1.50;0.67;;;;;;;3.17;nan;97012.38;5073591;28;20236;-75
2023/03/11 00:14:29;;;;;;;0.80;0.70;;;;;;;3.12;nan;97039.22;5073270;28;20231;-75
2023/03/11 00:16:56;;;;;;;1.57;0.60;;;;;;;3.10;nan;97037.81;5074342;28;20218;-75
2023/03/11 00:19:22;;;;;;;0.93;0.87;;;;;;;3.07;nan;97038.22;5077594;28;20204;-75
2023/03/11 00:21:49;;;;;;;1.60;0.80;;;;;;;3.10;nan;97037.81;5077097;28;20208;-75
2023/03/11 00:24:15;;;;;;;0.80;0.80;;;;;;;3.07;nan;97043.47;5077540;28;20207;-75
2023/03/11 00:26:42;;;;;;;1.20;0.90;;;;;;;2.96;nan;97051.88;5077287;28;20200;-75
2023/03/11 00:29:08;;;;;;;2.33;0.90;;;;;;;3.01;nan;97047.69;5077055;28;20671;-75
2023/03/11 00:31:34;;;;;;;1.10;0.70;;;;;;;3.02;nan;97045.88;5077250;28;20214;-75
2023/03/11 00:34:01;;;;;;;0.70;0.70;;;;;;;3.03;nan;97039.59;5077242;28;20228;-75
2023/03/11 00:36:32;;;;;;;0.80;0.80;;;;;;;3.04;nan;97042.03;5077759;28;20205;-75
2023/03/11 00:39:00;;;;;;;1.17;0.70;;;;;;;2.96;nan;97042.22;5076663;28;20204;-75
2023/03/11 00:41:27;;;;;;;0.70;0.60;;;;;;;3.04;nan;97042.03;5077650;28;20246;-75
2023/03/11 00:43:54;;;;;;;0.73;0.70;;;;;;;3.00;nan;97047.88;5076927;28;20222;-75
2023/03/11 00:46:20;;;;;;;0.77;0.70;;;;;;;3.03;nan;97066.66;5076975;28;20296;-75
2023/03/11 00:48:47;;;;;;;1.47;0.90;;;;;;;2.94;nan;97061.78;5076548;28;20201;-75
2023/03/11 00:51:15;;;;;;;0.80;0.80;;;;;;;2.98;nan;97061.19;5076918;28;20201;-74
2023/03/11 00:53:42;;;;;;;1.27;0.90;;;;;;;2.93;nan;97057.53;5076721;28;20225;-74
2023/03/11 00:56:10;;;;;;;1.10;1.00;;;;;;;2.99;nan;97070.66;5076885;28;20208;-75
2023/03/11 00:58:37;;;;;;;1.10;0.90;;;;;;;2.89;nan;97064.19;5076734;28;20287;-75
2023/03/11 01:01:11;;;;;;;1.17;1.07;;;;;;;2.89;nan;97064.19;5076644;28;20201;-74
2023/03/11 01:03:38;;;;;;;1.33;1.00;;;;;;;2.86;nan;97080.31;5076304;28;20231;-74
2023/03/11 01:06:07;;;;;;;2.07;1.03;;;;;;;2.84;nan;97079.72;5076735;28;20200;-74
2023/03/11 01:08:34;;;;;;;1.17;1.00;;;;;;;2.85;nan;97089.19;5076599;28;20223;-75
2023/03/11 01:11:01;;;;;;;0.97;0.97;;;;;;;2.82;nan;97076.44;5076459;28;20291;-75
2023/03/11 01:13:29;;;;;;;1.70;0.90;;;;;;;2.80;nan;97073.22;5075934;28;20307;-75
2023/03/11 01:15:56;;;;;;;1.73;1.10;;;;;;;2.74;nan;97085.31;5076185;28;20216;-75
2023/03/11 01:18:23;;;;;;;2.30;1.10;;;;;;;2.67;nan;97081.03;5076600;28;20211;-74
2023/03/11 01:20:50;;;;;;;1.67;1.13;;;;;;;2.68;nan;97080.00;5076024;28;20200;-75
2023/03/11 01:23:18;;;;;;;2.10;1.30;;;;;;;2.69;nan;97076.38;5075860;28;20290;-75
2023/03/11 01:25:45;;;;;;;1.93;1.07;;;;;;;2.63;nan;97075.34;5075937;28;20683;-74
2023/03/11 01:28:12;;;;;;;3.50;1.20;;;;;;;2.67;nan;97088.88;5075684;28;20204;-74
2023/03/11 01:30:40;;;;;;;2.03;0.90;;;;;;;2.71;nan;97082.25;5076153;28;20230;-75
2023/03/11 01:33:09;;;;;;;1.13;1.03;;;;;;;2.59;nan;97102.16;5075758;28;20233;-75
2023/03/11 01:35:35;;;;;;;1.47;0.80;;;;;;;2.64;nan;97089.25;5076017;28;20221;-75
2023/03/11 01:38:01;;;;;;;1.37;1.10;;;;;;;2.62;nan;97092.09;5075944;28;20207;-75
2023/03/11 01:40:37;;;;;;;3.07;1.07;;;;;;;2.45;nan;97097.81;5075683;28;20204;-74
2023/03/11 01:43:06;;;;;;;1.00;0.90;;;;;;;2.47;nan;97083.50;5076181;28;20232;-75
2023/03/11 01:46:00;;;;;;;1.17;1.00;;;;;;;2.37;nan;97096.16;5075927;28;20205;-75
2023/03/11 01:48:27;;;;;;;1.87;0.80;;;;;;;2.32;nan;97105.59;5074798;28;20212;-75
2023/03/11 01:50:54;;;;;;;1.10;1.00;;;;;;;2.19;nan;97097.63;5076348;28;20286;-75
2023/03/11 01:53:22;;;;;;;1.83;0.90;;;;;;;2.26;nan;97088.00;5075709;28;20510;-75
2023/03/11 01:55:49;;;;;;;1.13;1.00;;;;;;;2.26;nan;97080.16;5075656;28;20303;-75
2023/03/11 01:58:23;;;;;;;1.00;0.90;;;;;;;2.16;nan;97056.06;5075918;28;20216;-75
2023/03/11 02:00:50;;;;;;;1.23;0.80;;;;;;;2.14;nan;97082.47;5075417;28;20646;-75
2023/03/11 02:03:43;;;;;;;1.07;0.93;;;;;;;2.12;nan;97081.84;5075528;28;20228;-75
2023/03/11 02:06:12;;;;;;;2.10;0.90;;;;;;;2.08;nan;97087.66;5074334;28;20215;-75
2023/03/11 02:08:41;;;;;;;3.90;1.10;;;;;;;2.09;nan;97089.28;5075528;28;20208;-74
2023/03/11 02:11:11;;;;;;;1.40;0.80;;;;;;;2.08;nan;97077.19;5075121;28;20212;-75
2023/03/11 02:13:41;;;;;;;1.50;0.83;;;;;;;2.01;nan;97095.47;5075363;28;20233;-75
2023/03/11 02:16:08;;;;;;;1.37;0.70;;;;;;;1.97;nan;97115.19;5074979;28;20294;-75
2023/03/11 02:18:35;;;;;;;1.90;0.90;;;;;;;2.03;nan;97129.38;5075270;28;20211;-75
2023/03/11 02:21:07;;;;;;;1.23;0.90;;;;;;;2.00;nan;97117.44;5074950;28;20209;-75
2023/03/11 02:23:46;;;;;;;1.80;1.30;;;;;;;1.95;nan;97116.38;5074988;28;20231;-76
2023/03/11 02:26:23;;;;;;;2.50;0.90;;;;;;;2.00;nan;97122.69;5075242;28;20188;-75
2023/03/11 02:28:51;;;;;;;3.30;1.07;;;;;;;1.95;nan;97119.00;5074728;28;20646;-75
2023/03/11 02:31:18;;;;;;;1.80;0.90;;;;;;;1.99;nan;97115.81;5075003;28;20240;-75
2023/03/11 02:33:46;;;;;;;1.87;1.03;;;;;;;1.96;nan;97112.75;5074576;28;20228;-75
2023/03/11 02:36:33;;;;;;;1.20;0.93;;;;;;;1.83;nan;97125.72;5075156;28;20204;-76
2023/03/11 02:38:59;;;;;;;2.50;1.03;;;;;;;1.85;nan;97127.16;5074264;28;20212;-75
2023/03/11 02:41:27;;;;;;;1.37;1.10;;;;;;;1.83;nan;97126.56;5074411;28;20205;-75
2023/03/11 02:43:53;;;;;;;0.70;0.70;;;;;;;1.83;nan;97112.63;5074433;28;20229;-75
2023/03/11 02:46:20;;;;;;;2.80;1.00;;;;;;;1.79;nan;97109.59;5073508;28;20205;-75
2023/03/11 02:48:48;;;;;;;1.83;0.80;;;;;;;1.73;nan;97126.06;5074653;28;20204;-75
2023/03/11 02:51:15;;;;;;;1.43;1.13;;;;;;;1.57;nan;97130.72;5074299;28;20211;-75
2023/03/11 02:53:51;;;;;;;0.97;0.90;;;;;;;1.62;nan;97121.28;5074510;28;20224;-75
2023/03/11 02:56:17;;;;;;;1.00;0.80;;;;;;;1.56;nan;97145.63;5074288;28;20187;-75
2023/03/11 02:58:44;;;;;;;1.80;1.03;;;;;;;1.48;nan;97139.69;5074206;28;20216;-76
2023/03/11 03:01:10;;;;;;;1.93;1.10;;;;;;;1.50;nan;97121.97;5074366;28;20574;-75
2023/03/11 03:03:37;;;;;;;1.37;0.90;;;;;;;1.44;nan;97131.38;5074252;28;20229;-75
2023/03/11 03:06:04;;;;;;;1.77;1.10;;;;;;;1.38;nan;97133.91;5074308;28;20201;-76
2023/03/11 03:08:31;;;;;;;1.90;0.90;;;;;;;1.44;nan;97147.06;5074230;28;20291;-75
2023/03/11 03:10:58;;;;;;;1.73;0.80;;;;;;;1.33;nan;97142.31;5074244;28;20207;-75
2023/03/11 03:13:25;;;;;;;3.23;0.90;;;;;;;1.27;nan;97145.69;5073935;28;20231;-75
2023/03/11 03:15:52;;;;;;;1.47;0.67;;;;;;;1.24;nan;97153.06;5073918;28;20228;-75
2023/03/11 03:18:19;;;;;;;3.20;0.77;;;;;;;1.32;nan;97159.03;5073775;28;20236;-75
2023/03/11 03:20:45;;;;;;;4.23;0.90;;;;;;;1.31;nan;97167.88;5073772;28;20687;-75
2023/03/11 03:23:11;;;;;;;2.03;0.90;;;;;;;1.26;nan;97159.75;5073978;28;20225;-75
2023/03/11 03:25:41;;;;;;;1.83;0.60;;;;;;;1.23;nan;97159.31;5074660;28;20204;-75
2023/03/11 03:28:07;;;;;;;3.93;0.80;;;;;;;1.23;nan;97144.44;5073590;28;20204;-75
2023/03/11 03:30:34;;;;;;;1.30;0.90;;;;;;;1.18;nan;97141.56;5073631;28;20215;-75
2023/03/11 03:33:00;;;;;;;6.50;1.07;;;;;;;1.16;nan;97151.38;5073501;28;20231;-75
2023/03/11 03:35:27;;;;;;;2.13;0.80;;;;;;;1.12;nan;97146.69;5074285;28;20223;-75
2023/03/11 03:37:53;;;;;;;0.80;0.57;;;;;;;1.14;nan;97152.56;5073799;28;20208;-75
2023/03/11 03:40:20;;;;;;;4.13;1.00;;;;;;;1.14;nan;97160.41;5073330;28;20247;-76
2023/03/11 03:42:47;;;;;;;3.50;1.00;;;;;;;1.10;nan;97153.91;5073713;28;20227;-75
2023/03/11 03:45:14;;;;;;;1.60;1.00;;;;;;;1.14;nan;97166.47;5073720;28;20208;-75
2023/03/11 03:47:40;;;;;;;1.97;0.60;;;;;;;1.07;nan;97178.63;5073393;28;20254;-75
2023/03/11 03:50:09;;;;;;;3.33;0.80;;;;;;;0.98;nan;97178.94;5074450;28;20292;-75
2023/03/11 03:52:37;;;;;;;2.40;1.20;;;;;;;0.99;nan;97189.19;5073198;28;20235;-75
2023/03/11 03:55:05;;;;;;;3.93;1.00;;;;;;;1.01;nan;97189.00;5073586;28;20224;-75
2023/03/11 03:57:31;;;;;;;1.97;0.80;;;;;;;0.93;nan;97194.31;5073620;28;20204;-75
2023/03/11 03:59:58;;;;;;;2.27;1.00;;;;;;;0.90;nan;97207.78;5073518;28;20290;-75
2023/03/11 04:02:24;;;;;;;1.63;0.70;;;;;;;0.95;nan;97203.63;5073411;28;20224;-75
2023/03/11 04:04:51;;;;;;;2.13;0.60;;;;;;;0.96;nan;97196.59;5073451;28;20207;-75
2023/03/11 04:07:17;;;;;;;1.53;0.70;;;;;;;1.09;nan;97194.97;5073365;28;20226;-75
2023/03/11 04:09:44;;;;;;;1.77;1.00;;;;;;;1.01;nan;97191.63;5073711;28;20211;-75
2023/03/11 04:12:16;;;;;;;3.20;0.73;;;;;;;1.07;nan;97202.19;5073531;28;20585;-75
2023/03/11 04:14:43;;;;;;;5.07;1.00;;;;;;;1.11;nan;97200.00;5072966;28;20216;-75
2023/03/11 04:17:13;;;;;;;1.47;0.80;;;;;;;1.01;nan;97207.31;5073476;28;20195;-75
2023/03/11 04:19:41;;;;;;;3.10;0.80;;;;;;;1.02;nan;97206.34;5073107;28;20192;-75
2023/03/11 04:22:07;;;;;;;3.90;1.07;;;;;;;1.06;nan;97211.03;5073135;28;20726;-75
2023/03/11 04:24:33;;;;;;;3.13;0.90;;;;;;;0.93;nan;97207.41;5073420;28;20735;-75
2023/03/11 04:27:00;;;;;;;1.53;0.60;;;;;;;0.94;nan;97209.06;5073223;28;20200;-75
2023/03/11 04:29:27;;;;;;;1.97;0.77;;;;;;;0.95;nan;97213.28;5073280;28;20292;-75
2023/03/11 04:31:53;;;;;;;1.70;0.80;;;;;;;0.89;nan;97216.63;5073162;28;20220;-75
2023/03/11 04:34:19;;;;;;;2.43;1.00;;;;;;;0.81;nan;97207.03;5072842;28;20294;-75
2023/03/11 04:36:46;;;;;;;4.40;0.90;;;;;;;0.77;nan;97212.81;5072958;28;20211;-75
2023/03/11 04:39:12;;;;;;;1.63;0.80;;;;;;;0.75;nan;97207.75;5072837;28;20210;-75
2023/03/11 04:41:39;;;;;;;5.00;0.90;;;;;;;0.71;nan;97208.31;5072729;28;20214;-75
2023/03/11 04:44:05;;;;;;;2.87;1.00;;;;;;;0.72;nan;97202.88;5073131;28;20311;-75
2023/03/11 04:46:32;;;;;;;1.97;0.80;;;;;;;0.65;nan;97206.38;5072869;28;20205;-75
2023/03/11 04:48:58;;;;;;;5.30;1.00;;;;;;;0.67;nan;97199.19;5072648;28;20378;-75
2023/03/11 04:51:25;;;;;;;4.27;1.00;;;;;;;0.72;nan;97199.47;5073252;28;20201;-75
2023/03/11 04:53:51;;;;;;;2.67;0.90;;;;;;;0.67;nan;97199.19;5072841;28;20229;-75
2023/03/11 04:56:18;;;;;;;1.17;0.80;;;;;;;0.59;nan;97201.88;5072917;28;20247;-75
2023/03/11 04:58:44;;;;;;;3.13;1.03;;;;;;;0.66;nan;97197.53;5072953;28;20204;-75
2023/03/11 05:01:11;;;;;;;2.57;0.90;;;;;;;0.60;nan;97209.53;5072988;28;20205;-75
2023/03/11 05:03:37;;;;;;;2.40;0.80;;;;;;;0.61;nan;97220.81;5074861;28;20225;-75
2023/03/11 05:06:04;;;;;;;2.73;0.97;;;;;;;0.62;nan;97223.25;5076771;28;20202;-75
2023/03/11 05:08:30;;;;;;;1.90;0.97;;;;;;;0.57;nan;97224.75;5076502;28;20216;-75
2023/03/11 05:10:56;;;;;;;3.50;0.80;;;;;;;0.61;nan;97228.66;5076323;28;20694;-75
2023/03/11 05:13:23;;;;;;;3.60;1.20;;;;;;;0.62;nan;97222.44;5076308;28;20228;-75
2023/03/11 05:15:49;;;;;;;2.47;1.00;;;;;;;0.64;nan;97221.28;5076084;28;20225;-75
2023/03/11 05:18:16;;;;;;;1.43;0.83;;;;;;;0.60;nan;97232.25;5076340;28;20208;-75
2023/03/11 05:20:42;;;;;;;2.37;0.90;;;;;;;0.63;nan;97224.88;5076125;28;20205;-75
2023/03/11 05:23:09;;;;;;;2.77;0.90;;;;;;;0.59;nan;97223.63;5076181;28;20255;-75
2023/03/11 05:25:35;;;;;;;2.80;1.20;;;;;;;0.56;nan;97230.97;5076222;28;20203;-75
2023/03/11 05:28:02;;;;;;;3.33;1.03;;;;;;;0.56;nan;97217.91;5076302;28;20212;-75
2023/03/11 05:30:28;;;;;;;1.90;1.00;;;;;;;0.51;nan;97220.25;5075887;28;20660;-75
2023/03/11 05:32:55;;;;;;;2.40;0.90;;;;;;;0.53;nan;97232.16;5076035;28;20220;-75
2023/03/11 05:35:21;;;;;;;2.13;1.03;;;;;;;0.55;nan;97226.75;5075938;28;20227;-75
2023/03/11 05:37:48;;;;;;;3.70;1.00;;;;;;;0.43;nan;97230.75;5075849;28;20207;-75
2023/03/11 05:40:16;;;;;;;4.33;1.10;;;;;;;0.36;nan;97232.47;5075663;28;20671;-75
2023/03/11 05:42:42;;;;;;;2.83;1.00;;;;;;;0.35;nan;97236.06;5075502;28;20225;-75
2023/03/11 05:45:10;;;;;;;3.37;0.87;;;;;;;0.32;nan;97239.84;5075483;28;20568;-75
2023/03/11 05:47:36;;;;;;;4.27;1.23;;;;;;;0.33;nan;97239.66;5075704;28;20212;-75
2023/03/11 05:50:03;;;;;;;3.13;1.07;;;;;;;0.35;nan;97230.84;5075610;28;20201;-75
2023/03/11 05:52:31;;;;;;;3.93;1.00;;;;;;;0.33;nan;97229.19;5075632;28;20232;-75
2023/03/11 05:54:58;;;;;;;3.30;0.90;;;;;;;0.44;nan;97232.41;5075479;28;20277;-74
2023/03/11 05:57:24;;;;;;;6.83;1.17;;;;;;;0.44;nan;97235.81;5075572;28;20234;-75
2023/03/11 05:59:51;;;;;;;5.30;1.30;;;;;;;0.55;nan;97240.66;5075272;28;20209;-75
2023/03/11 06:02:19;;;;;;;2.90;1.30;;;;;;;0.48;nan;97242.31;5075482;28;20220;-75
2023/03/11 06:04:46;;;;;;;2.17;0.97;;;;;;;0.47;nan;97251.16;5075455;28;20228;-75
2023/03/11 06:07:14;;;;;;;4.10;1.07;;;;;;;0.47;nan;97245.13;5075359;28;20201;-75
2023/03/11 06:09:40;;;;;;;5.60;1.10;;;;;;;0.47;nan;97246.72;5075329;28;20216;-75
2023/03/11 06:12:07;;;;;;;1.80;1.10;;;;;;;0.47;nan;97265.03;5075160;28;20220;-75
2023/03/11 06:14:33;;;;;;;3.40;1.07;;;;;;;0.46;nan;97270.47;5075141;28;20214;-75
2023/03/11 06:17:00;;;;;;;3.40;0.97;;;;;;;0.56;nan;97263.19;5074948;28;20584;-75
2023/03/11 06:19:26;;;;;;;7.33;1.20;;;;;;;0.60;nan;97267.09;5075757;28;20214;-75
2023/03/11 06:21:52;;;;;;;5.30;1.40;;;;;;;0.62;nan;97259.84;5075720;28;20586;-75
2023/03/11 06:24:19;;;;;;;3.90;1.30;;;;;;;0.63;nan;97268.53;5075058;28;20236;-75
2023/03/11 06:26:45;;;;;;;3.43;1.20;;;;;;;0.69;nan;97263.41;5075004;28;20207;-75
2023/03/11 06:29:14;;;;;;;3.20;1.10;;;;;;;0.69;nan;97262.59;5074979;28;20299;-75
2023/03/11 06:31:40;;;;;;;3.93;1.17;;;;;;;0.80;nan;97268.19;5074985;28;20592;-75
2023/03/11 06:34:08;;;;;;;4.63;1.43;;;;;;;0.82;nan;97260.19;5074893;28;20291;-75
2023/03/11 06:36:34;;;;;;;2.50;1.10;;;;;;;0.80;nan;97273.44;5074603;28;20225;-75
2023/03/11 06:39:01;;;;;;;4.53;1.20;;;;;;;0.76;nan;97272.16;5074201;28;20212;-75
2023/03/11 06:41:27;;;;;;;4.50;1.40;;;;;;;0.88;nan;97281.22;5074385;28;20210;-75
2023/03/11 06:43:53;;;;;;;2.57;1.23;;;;;;;0.78;nan;97293.75;5074235;28;20589;-75
2023/03/11 06:46:22;;;;;;;4.80;1.20;;;;;;;0.81;nan;97285.53;5074536;28;20251;-75
2023/03/11 06:48:50;;;;;;;5.47;1.40;;;;;;;0.89;nan;97297.75;5074160;28;20212;-75
2023/03/11 06:51:17;;;;;;;3.80;1.07;;;;;;;0.94;nan;97304.03;5074208;28;20246;-75
2023/03/11 06:53:44;;;;;;;5.60;1.30;;;;;;;1.01;nan;97304.97;5074689;28;20224;-75
2023/03/11 06:56:12;;;;;;;5.00;1.00;;;;;;;0.90;nan;97301.97;5074329;28;20228;-75
2023/03/11 06:58:41;;;;;;;6.63;1.10;;;;;;;0.83;nan;97309.72;5074397;28;20266;-75
2023/03/11 07:01:21;;;;;;;2.87;1.30;;;;;;;1.01;nan;97314.63;5074307;28;20231;-75
2023/03/11 07:03:48;;;;;;;6.03;1.20;;;;;;;1.01;nan;97322.47;5073951;28;20226;-75
2023/03/11 07:06:17;;;;;;;6.70;1.80;;;;;;;1.04;nan;97327.38;5073943;28;20200;-75
2023/03/11 07:08:45;;;;;;;3.63;1.00;;;;;;;0.97;nan;97327.25;5073788;28;20299;-75
2023/03/11 07:11:20;;;;;;;6.70;1.10;;;;;;;1.15;nan;97329.53;5074006;28;20201;-74
2023/03/11 07:13:47;;;;;;;4.47;1.20;;;;;;;1.15;nan;97324.31;5074053;28;20234;-75
2023/03/11 07:16:19;;;;;;;4.83;1.10;;;;;;;1.25;nan;97333.53;5073672;28;20232;-75
2023/03/11 07:18:47;;;;;;;5.10;1.50;;;;;;;1.30;nan;97328.56;5073806;28;20548;-75
2023/03/11 07:21:16;;;;;;;2.57;1.10;;;;;;;1.23;nan;97338.16;5074075;28;20205;-75
2023/03/11 07:23:42;;;;;;;7.10;1.23;;;;;;;1.36;nan;97345.38;5073499;28;20225;-75
2023/03/11 07:26:12;;;;;;;7.37;1.20;;;;;;;1.38;nan;97340.75;5073294;28;20224;-75
2023/03/11 07:28:39;;;;;;;4.00;1.53;;;;;;;1.38;nan;97340.75;5073771;28;20308;-75
2023/03/11 07:31:15;;;;;;;4.70;1.20;;;;;;;1.36;nan;97348.00;5073783;28;20201;-75
2023/03/11 07:33:42;;;;;;;3.10;0.90;;;;;;;1.47;nan;97340.50;5073665;28;20582;-75
2023/03/11 07:36:11;;;;;;;4.93;1.20;;;;;;;1.44;nan;97340.88;5073605;28;20230;-75
2023/03/11 07:38:38;;;;;;;3.70;1.20;;;;;;;1.37;nan;97349.63;5073920;28;20200;-75
2023/03/11 07:41:06;;;;;;;4.77;1.20;;;;;;;1.44;nan;97353.97;5073457;28;20200;-75
2023/03/11 07:43:33;;;;;;;4.97;1.20;;;;;;;1.54;nan;97366.81;5073281;28;20227;-75
2023/03/11 07:46:15;;;;;;;4.83;1.23;;;;;;;1.66;nan;97360.94;5073442;28;20204;-75
2023/03/11 07:48:42;;;;;;;4.43;1.50;;;;;;;1.58;nan;97355.78;5072908;28;20199;-75
2023/03/11 07:51:15;;;;;;;4.00;1.00;;;;;;;1.74;nan;97360.84;5073223;28;20204;-75
2023/03/11 07:53:43;;;;;;;4.97;1.20;;;;;;;1.88;nan;97367.06;5073259;28;20232;-75
2023/03/11 07:56:11;;;;;;;3.33;1.00;;;;;;;1.95;nan;97360.94;5072935;28;20224;-75
2023/03/11 07:58:38;;;;;;;5.23;1.23;;;;;;;2.03;nan;97373.13;5073222;28;20583;-75
2023/03/11 08:01:07;;;;;;;4.87;1.30;;;;;;;1.80;nan;97378.47;5072913;28;20205;-75
2023/03/11 08:03:34;;;;;;;3.73;1.27;;;;;;;1.88;nan;97380.16;5073031;28;20231;-75
2023/03/11 08:06:01;;;;;;;3.67;1.30;;;;;;;1.80;nan;97382.91;5073083;28;20220;-75
2023/03/11 08:08:28;;;;;;;5.53;1.10;;;;;;;1.75;nan;97377.41;5073050;28;20207;-75
2023/03/11 08:10:54;;;;;;;3.77;1.20;;;;;;;1.98;nan;97381.53;5073162;28;20216;-75
2023/03/11 08:13:21;;;;;;;3.47;0.93;;;;;;;2.17;nan;97377.53;5072986;28;20228;-75
2023/03/11 08:15:47;;;;;;;3.53;1.00;;;;;;;2.09;nan;97382.88;5072918;28;20228;-75
2023/03/11 08:18:13;;;;;;;2.90;0.83;;;;;;;2.25;nan;97383.50;5073048;28;20292;-75
2023/03/11 08:20:40;;;;;;;5.83;1.20;;;;;;;2.15;nan;97392.63;5073000;28;20210;-75
2023/03/11 08:23:06;;;;;;;2.77;0.90;;;;;;;2.15;nan;97390.00;5072784;28;20235;-75
2023/03/11 08:25:33;;;;;;;3.53;1.13;;;;;;;2.22;nan;97386.47;5072763;28;20208;-75
2023/03/11 08:27:59;;;;;;;4.30;0.83;;;;;;;2.42;nan;97395.41;5072847;28;20201;-75
2023/03/11 08:30:25;;;;;;;5.00;1.10;;;;;;;2.15;nan;97397.88;5072953;28;20208;-75
2023/03/11 08:32:52;;;;;;;6.00;1.37;;;;;;;2.11;nan;97400.06;5072811;28;20243;-75
2023/03/11 08:35:18;;;;;;;5.17;1.00;;;;;;;2.38;nan;97403.81;5072892;28;20208;-75
2023/03/11 08:37:44;;;;;;;3.30;1.20;;;;;;;2.57;nan;97419.00;5073195;28;20228;-75
2023/03/11 08:40:11;;;;;;;5.53;1.50;;;;;;;2.43;nan;97409.34;5076488;28;20374;-75
2023/03/11 08:42:38;;;;;;;2.73;0.93;;;;;;;2.44;nan;97413.59;5076720;28;20225;-75
2023/03/11 08:45:05;;;;;;;5.83;1.33;;;;;;;2.48;nan;97414.84;5076771;28;20201;-75
2023/03/11 08:47:35;;;;;;;5.07;1.00;;;;;;;2.56;nan;97417.34;5076735;28;20204;-75
2023/03/11 08:50:02;;;;;;;4.13;1.07;;;;;;;2.65;nan;97422.31;5077240;28;20209;-75
2023/03/11 08:52:28;;;;;;;4.87;1.10;;;;;;;2.60;nan;97421.22;5076294;28;20225;-74
2023/03/11 08:54:55;;;;;;;4.40;0.90;;;;;;;2.78;nan;97424.25;5076585;28;20211;-74
2023/03/11 08:57:21;;;;;;;3.13;1.17;;;;;;;2.76;nan;97431.53;5076060;28;20228;-74
2023/03/11 08:59:47;;;;;;;5.67;1.07;;;;;;;2.95;nan;97428.28;5075870;28;20671;-74
2023/03/11 09:02:14;;;;;;;5.07;1.10;;;;;;;3.06;nan;97427.78;5076000;28;20687;-74
2023/03/11 09:04:40;;;;;;;3.67;1.27;;;;;;;2.76;nan;97428.91;5076477;28;20204;-73
2023/03/11 09:07:06;;;;;;;6.23;1.60;;;;;;;2.43;nan;97436.38;5076296;28;20197;-74
2023/03/11 09:09:33;;;;;;;4.70;1.30;;;;;;;2.30;nan;97432.78;5076222;28;20204;-73
2023/03/11 09:11:59;;;;;;;4.20;1.20;;;;;;;2.60;nan;97436.97;5076759;28;20224;-74
2023/03/11 09:14:25;;;;;;;4.10;1.37;;;;;;;2.98;nan;97428.72;5076389;28;20204;-74
2023/03/11 09:16:52;;;;;;;2.93;1.30;;;;;;;3.22;nan;97431.00;5075828;28;20232;-73
2023/03/11 09:19:18;;;;;;;2.63;0.90;;;;;;;3.52;nan;97429.81;5075906;28;20207;-75
2023/03/11 09:21:44;;;;;;;4.73;0.80;;;;;;;3.59;nan;97432.50;5076011;28;20296;-74
2023/03/11 09:24:11;;;;;;;6.03;1.40;;;;;;;3.52;nan;97442.97;5075983;28;20215;-74
2023/03/11 09:26:37;;;;;;;5.23;1.20;;;;;;;3.56;nan;97438.97;5075891;28;20200;-74
2023/03/11 09:29:03;;;;;;;5.47;1.33;;;;;;;3.44;nan;97452.81;5075904;28;20301;-74
2023/03/11 09:31:30;;;;;;;3.67;1.27;;;;;;;2.82;nan;97443.91;5075446;28;20204;-75
2023/03/11 09:33:56;;;;;;;3.47;1.17;;;;;;;3.10;nan;97450.03;5075598;28;20689;-76
2023/03/11 09:36:23;;;;;;;4.50;1.17;;;;;;;3.37;nan;97444.88;5075738;28;20224;-76
2023/03/11 09:38:49;;;;;;;1.37;0.93;;;;;;;3.29;nan;97449.44;5075236;28;20674;-76
2023/03/11 09:41:37;;;;;;;4.47;1.20;;;;;;;3.33;nan;97442.78;5075099;28;20781;-76
2023/03/11 09:44:32;;;;;;;3.87;0.90;;;;;;;3.32;nan;97439.38;5076218;28;20193;-74
2023/03/11 09:47:33;;;;;;;5.97;1.20;;;;;;;3.43;nan;97451.19;5072723;28;20208;-73
2023/03/11 09:50:15;;;;;;;4.73;1.10;;;;;;;3.32;nan;97436.75;5075167;28;20199;-74
2023/03/11 09:52:44;;;;;;;2.33;0.90;;;;;;;3.51;nan;97454.47;5075446;28;20264;-74
2023/03/11 09:55:48;;;;;;;3.57;1.00;;;;;;;3.60;nan;97447.28;5075305;28;20208;-74
2023/03/11 09:58:26;;;;;;;2.73;0.83;;;;;;;3.25;nan;97451.63;5075310;28;20275;-74
2023/03/11 10:00:53;;;;;;;2.00;0.83;;;;;;;3.38;nan;97445.66;5075353;28;20565;-74
2023/03/11 10:03:28;;;;;;;2.83;0.80;;;;;;;3.48;nan;97448.81;5074921;28;20707;-76
2023/03/11 10:06:02;;;;;;;2.60;0.90;;;;;;;3.73;nan;97450.81;5075285;28;20189;-76
2023/03/11 10:08:34;;;;;;;1.77;0.70;;;;;;;4.52;nan;97442.41;5075365;28;20284;-74
2023/03/11 10:11:45;;;;;;;2.53;1.00;;;;;;;5.24;nan;97437.38;5075116;28;20188;-74
2023/03/11 10:14:33;;;;;;;2.67;1.10;;;;;;;5.04;nan;97449.69;5069663;28;20212;-74
2023/03/11 10:17:20;;;;;;;2.30;0.93;;;;;;;4.40;nan;97437.88;5074768;28;20228;-74
2023/03/11 10:20:15;;;;;;;4.47;1.30;;;;;;;4.63;nan;97443.66;5063874;28;20211;-74
2023/03/11 10:22:53;;;;;;;3.83;1.00;;;;;;;3.63;nan;97450.34;5075069;28;20254;-74
2023/03/11 10:25:33;;;;;;;2.00;0.67;;;;;;;3.70;nan;97451.19;5075028;28;20192;-74
2023/03/11 10:28:12;;;;;;;5.33;1.10;;;;;;;3.95;nan;97446.31;5073386;28;20196;-74
2023/03/11 10:30:46;;;;;;;2.13;0.50;;;;;;;4.45;nan;97452.09;5074776;28;20188;-74
2023/03/11 10:33:25;;;;;;;2.00;0.70;;;;;;;4.64;nan;97450.53;5074394;28;20235;-74
2023/03/11 10:35:54;;;;;;;0.87;0.70;;;;;;;4.06;nan;97454.50;5075216;28;20189;-74
2023/03/11 10:38:26;;;;;;;1.90;0.70;;;;;;;4.56;nan;97446.25;5074294;28;20667;-74
2023/03/11 10:40:56;;;;;;;2.50;0.80;;;;;;;4.74;nan;97448.38;5074597;28;20185;-74
2023/03/11 10:43:27;;;;;;;2.50;0.73;;;;;;;4.98;nan;97446.00;5074321;28;20278;-74
2023/03/11 10:45:53;;;;;;;4.20;0.90;;;;;;;4.18;nan;97436.34;5074485;28;20192;-74
2023/03/11 10:48:21;;;;;;;1.13;0.80;;;;;;;4.71;nan;97439.03;5074272;28;20207;-74
2023/03/11 10:51:12;;;;;;;4.10;0.80;;;;;;;4.98;nan;97438.09;5074387;28;20310;-74
2023/03/11 10:53:48;;;;;;;0.80;0.60;;;;;;;4.82;nan;97440.28;5073254;28;20224;-74
2023/03/11 10:56:34;;;;;;;1.77;0.90;;;;;;;4.72;nan;97439.84;5074036;28;20230;-74
2023/03/11 10:59:02;;;;;;;2.13;0.83;;;;;;;4.33;nan;97442.28;5074420;28;20538;-74
2023/03/11 11:01:29;;;;;;;5.50;1.53;;;;;;;4.82;nan;97442.91;5073989;28;20205;-74
2023/03/11 11:03:59;;;;;;;2.63;1.07;;;;;;;5.16;nan;97442.81;5073852;28;20214;-74
2023/03/11 11:06:34;;;;;;;2.33;0.97;;;;;;;5.28;nan;97439.41;5074036;28;20191;-74
2023/03/11 11:09:05;;;;;;;4.67;1.23;;;;;;;4.92;nan;97449.44;5073868;28;20211;-74
2023/03/11 11:11:32;;;;;;;2.00;0.67;;;;;;;5.34;nan;97443.06;5073593;28;20722;-74
2023/03/11 11:14:00;;;;;;;2.30;0.70;;;;;;;5.00;nan;97453.72;5073243;28;20686;-74
2023/03/11 11:16:28;;;;;;;2.07;0.80;;;;;;;5.19;nan;97445.03;5073069;28;20311;-74
2023/03/11 11:19:19;;;;;;;2.63;0.80;;;;;;;4.94;nan;97449.25;5074131;28;20208;-74
2023/03/11 11:21:51;;;;;;;3.60;0.83;;;;;;;4.63;nan;97444.50;5073931;28;20275;-74
2023/03/11 11:24:27;;;;;;;3.00;0.70;;;;;;;4.66;nan;97448.53;5074029;28;20192;-74
2023/03/11 11:27:27;;;;;;;3.00;0.80;;;;;;;3.92;nan;97444.91;5073691;28;20263;-76
2023/03/11 11:30:08;;;;;;;1.67;0.70;;;;;;;4.04;nan;97447.81;5068263;28;20200;-74
2023/03/11 11:32:36;;;;;;;0.87;0.60;;;;;;;4.01;nan;97446.38;5073204;28;20224;-74
2023/03/11 11:35:06;;;;;;;2.20;0.60;;;;;;;3.90;nan;97436.41;5073246;28;20208;-74
2023/03/11 11:37:36;;;;;;;2.30;1.10;;;;;;;4.20;nan;97444.88;5073268;28;20733;-74
2023/03/11 11:40:15;;;;;;;2.60;0.80;;;;;;;4.51;nan;97451.31;5073543;28;20203;-74
2023/03/11 11:42:50;;;;;;;4.23;0.90;;;;;;;4.37;nan;97451.44;5073185;28;20235;-74
2023/03/11 11:45:22;;;;;;;3.17;0.93;;;;;;;4.32;nan;97449.41;5073531;28;20189;-75
2023/03/11 11:47:52;;;;;;;1.73;0.83;;;;;;;4.18;nan;97449.50;5073463;28;20184;-74
2023/03/11 11:50:40;;;;;;;5.97;0.73;;;;;;;4.25;nan;97447.75;5073276;28;20196;-74
2023/03/11 11:53:13;;;;;;;1.97;0.70;;;;;;;4.38;nan;97439.91;5073179;28;20246;-74
2023/03/11 11:55:47;;;;;;;2.20;0.80;;;;;;;4.69;nan;97442.88;5073381;28;20203;-74
2023/03/11 11:58:13;;;;;;;4.23;0.90;;;;;;;4.25;nan;97434.59;5071909;28;20208;-74
2023/03/11 12:00:49;;;;;;;2.30;1.00;;;;;;;4.28;nan;97440.25;5072829;28;20664;-74
2023/03/11 12:03:27;;;;;;;1.87;0.80;;;;;;;4.41;nan;97436.88;5072681;28;20220;-74
2023/03/11 12:06:01;;;;;;;2.63;0.90;;;;;;;4.57;nan;97429.47;5072573;28;20199;-75
2023/03/11 12:08:52;;;;;;;3.80;0.90;;;;;;;4.92;nan;97424.91;5072695;28;20322;-75
2023/03/11 12:11:33;;;;;;;1.70;0.80;;;;;;;5.18;nan;97417.06;5073161;28;20185;-75